Bienvenidos al Sitio de AASANA BOLIVIA
Aeropuerto: Internaciónal El Alto
HORA UTC 19:00
18°C
Humedad: 21%

Fecha: 12/12/2018


Sin Fenómeno
ESTACIÓN:SLLP
LATITUD|LONGITUD:16-08S|68-10W
HORA UTC:19:00
DESCRIPCIÓN: SLLP 121900Z 05015KT 350V080 9999 FEW023 FEW025CB BKN200 18/M05 Q1037 A3064 627.6 HR21 P5783 CB/SH E/SE/W/NW NOSIG=
Regional La Paz
EstaciónAerodromoSit. GeograficaDescripción
SLLPInternaciónal El Alto16-08S-68-10W SLLP 121900Z 05015KT 350V080 9999 FEW023 FEW025CB BKN200 18/M05 Q1037 A3064 627.6 HR21 P5783 CB/SH E/SE/W/NW NOSIG=
SLCNCharaña17-35S-69-25W
SLAPApolo14-44S-68-24W SLAP 121900Z 35010KT 9999 FEW023 31/15 Q1016 A3000 HR35=
SLUYUyuni20-27S-62-52W SLUY 121900Z 31013KT 9999 FEW030 FEW033CB 24/M04 Q1031 A3047 656.8 HR16 CB/SH E CI=
SLOROruro17-57S-67-04W SLOR 121900Z 04010G22KT 9999 FEW020 FEW023CB BKN200 23/04 Q1032SFC/FL1‘¿
SLRYReyes14-18S-67-21W SLRY 121900Z 34010KT 9999 SCT020 33/25 Q1009 A2982 HR62 RWY NML=
SLRQRurrenabaque14-25S-67-29W SLRQ 121900Z 35006KT 9999 SCT020 35/27 Q1008 A2979 HR64 CI=
SLSBSan Borja14-51S-66-44W SLSB 121900Z 32008KT 9999 SCT020 34/26 Q1008 A2979 HR63 RWY NML=
SLCCCopacabana - Tito Yupanqui16-11S-69-05W SLCC 282100Z 00000KT 9999 FEW023 12/06 Q1034 A3056 644,0 HR72 AC CI=
Regional Cochabamba
EstaciónAerodromoSit. GeograficaDescripción
SLBJBermejo22-46S-64-18W SLBJ 072000Z 18004KT 9999 SCT025 FEW025TCU BKN200 31/26 Q1004 A2965 HR71 TCU/N/NE/NW=
SLAGMonteagudo19-49S-63-58W SLAG 121900Z 07004KT 9999 SCT030 BKN070 28/22 Q1015 A2999 887.9 HR69=
SLVMVillamontes21-15S-63-24W SLVM 121900Z 36006KT 9999 SCT025 BKN070 33/24 Q1007 A2975 HR58 FU CI=
SLYAYacuiba21-57S-63-39W SLYA 121900Z 08009KT 9999 SCT025 34/24 Q1008 A2978 933.5 HR55=
SLHIChimore16-58S-65-09W SLHI 121900Z 26003KT 9999 SCT015 BKN070 29/27 Q1010 A2984 983.4 HR88=
SLPOPotosí19-32S-65-43W SLPO 121700Z 09012KT 9999 SCT020 FEW025CB 20/04 Q1039 A3070 639.2 HR34 CB E/S=
SLALAlcantari19-14S-65-09W SLAL 121900Z 07016KT 9999 FEW023 FEW033CB BKN200 23/07 Q1027 A3033 702.6 HR35 CB S/SW/NW=
SLTJTarija21-33S-64-42W SLTJ 121900Z 13008KT 9999 SCT036 FEW040CB BKN200 30/17 Q1016 A3001 811.9 HR45 CB/N/NE/SW/W AC FU=
SLCBCochabamba17-25S-66-10W SLCB 121900Z 10013G25KT 030V140 8000 VCSH SCT033 SCT036CB BKN080 25/07 Q1022 A3018 749.0 HR32 CB E/SE/S/SW/W SH/SW/W CI BECMG 09015KT=
Regional Santa Cruz
EstaciónAerodromoSit. GeograficaDescripción
SLASAscención de Guarayos15-55S-63-09W SLAS 121900Z 33015KT 9999 SCT020 BKN200 34/25 Q1012 A2988 HR61 RWY NML=
SLTISan Matías16-20S-58-24W SLTI 121900Z 36010KT 9999 FEW020 36/23 Q1013 A2991 HR48 RWY NML =
SLVGValle Grande18-28S-64-05W SLVG 121900Z 36007KT 9999 BKN023 BKN200 23/17 Q1022 A3018 HR69 RWY NML=
SLPSPuerto Suárez18-58S-57-49W SLPS 121900Z 06006KT 9999 SCT017 35/25 Q1009 A2980 HR56=
SLVRInternaciónal Viru Viru17-38S-63-08W SLVR 121900Z 36013G23KT 9999 FEW013 BKN020 32/23 Q1011 A2987 HR62 AC NOSIG=
SLJVSan Javier16-16S-62-28W SLJV 121900Z 36014KT 9999 SCT020 32/23 Q1011 A2985 HR61 RWY NML =
SLCPConcepción16-08S-62-01W SLCP 121900Z 36014KT 9999 SCT017 32/23 Q1014 A2994 HR60 RWY NML =
SLSISan Ignacio de Velasco16-23S-60-57W SLSI 121900Z 33005KT 9999 SCT017 34/22 Q1013 A2991 HR50 RWY NML =
SLJESan José de Chiquitos17-49S-60-44W SLJE 121900Z 36006KT 9999 BKN020 32/24 Q1013 A2991 HR62 RWY HUM OPR=
SLRBRoboré18-19S-59-45W SLRB 121900Z 36015KT 9999 SCT020 35/23 Q1013 A2991 HR51 RWY NML =
SLCACamiri20-00S-63-31W SLCA 121900Z 36004KT 9999 BKN036 28/22 Q1014 A2994 HR70 RWY NML=
SLETEl Trompillo17-48S-63-10W SLET 121900Z 31012G27KT 9999 FEW015 SCT020 31/24 Q1009 A2982 HR66 AC/CI NOSIG=
Regional Beni
EstaciónAerodromoSit. GeograficaDescripción
SLJOSan Joaquin13-03S-64-39W SLJO 121900Z 32008KT 9999 SCT017 FEW023CB 32/25 Q1010 A2983 HR68 CB NE RWY NML=
SLRASan Ramón13-15S-64-36W SLRA 121900Z 32008KT 8000 VCSH SCT017 FEW023CB BKN200 33/24 Q1010 A2985 HR62 CB/SH S RWY NML=
SLMGSan Magdalena13-15S-64-36W SLMG 121900Z 32006KT 9999 SCT017 31/25 Q1009 A2982 HR67 RWY NML=
SLBUBaures13-39S-63-42W SLBU 121900Z 34008KT 9999 SCT017 34/26 Q1009 A2982 HR64 RWY NML=
SLSASanta Ana de Yacuma13-45S-65-26W SLSA 121900Z 32010KT 9999 SCT017 34/24 Q1009 A2981 HR58=
SLSMSan Ignacio de Moxos14-57S-65-38W SLSM 121900Z 34015KT 9999 FEW015 FEW020CB BKN200 32/27 Q1009 A2980 HR74 CB NE RWY NML=
SLGMGuayaramerín10-53S-65-23W SLGM 121900Z 34006KT 8000 VCSH SCT017 FEW020CB 29/26 Q1010 A2984 HR80 CB/SH NW=
SLTRTrinidad14-49S-64-54W SLTR 121900Z 35006KT 9999 FEW017 FEW020CB BKN200 33/25 Q1010 A2983 991.6 HR65 CB SW/W NOSIG=
SLRIRiberalta11-00S-66-04W SLRI 121900Z 30004KT 5000 VCSH BKN017 FEW020CB BKN200 29/24 Q1010 A2985 HR77 RESH CB/SH N/NE/NW=
SLSRSanta Rosa14-04S-66-47W SLSR 121900Z 34012KT 8000 VCSH SCT017 FEW023CB BKN200 34/25 Q1009 A2982 HR60 CB/SH NE/SE RWY NML=
SLCOCobija11-02S-68-47W SLCO 121900Z 25003KT 9999 SCT020 30/25 Q1011 A2986 983.8 HR75 AC/CI=